createdAt,value
2022-10-21T00:00:06.365Z,25.03
2022-10-21T00:01:06.347Z,25.08
2022-10-21T00:02:06.345Z,25.08
2022-10-21T00:03:06.327Z,25.30
2022-10-21T00:04:06.316Z,25.08
2022-10-21T00:05:06.295Z,25.03
2022-10-21T00:06:06.288Z,25.08
2022-10-21T00:07:06.267Z,25.14
2022-10-21T00:08:06.254Z,25.08
2022-10-21T00:09:06.301Z,25.24
2022-10-21T00:10:06.237Z,25.08
2022-10-21T00:11:06.215Z,24.87
2022-10-21T00:12:06.206Z,25.03
2022-10-21T00:13:06.183Z,25.08
2022-10-21T00:14:06.193Z,25.30
2022-10-21T00:15:06.158Z,25.14
2022-10-21T00:16:06.159Z,25.14
2022-10-21T00:17:06.129Z,25.08
2022-10-21T00:18:06.120Z,25.03
2022-10-21T00:19:06.111Z,25.14
2022-10-21T00:20:06.106Z,25.08
2022-10-21T00:21:06.078Z,25.08
2022-10-21T00:22:06.062Z,25.03
2022-10-21T00:23:06.044Z,25.03
2022-10-21T00:24:06.037Z,25.08
2022-10-21T00:25:06.014Z,25.08
2022-10-21T00:26:06.025Z,25.08
2022-10-21T00:27:05.993Z,25.35
2022-10-21T00:28:05.984Z,25.19
2022-10-21T00:29:05.968Z,25.19
2022-10-21T00:30:05.972Z,25.03
2022-10-21T00:31:05.941Z,25.14
2022-10-21T00:32:05.928Z,25.14
2022-10-21T00:33:05.909Z,24.98
2022-10-21T00:34:05.900Z,25.03
2022-10-21T00:35:05.882Z,25.03
2022-10-21T00:36:05.879Z,25.14
2022-10-21T00:37:05.854Z,25.19
2022-10-21T00:38:05.844Z,25.14
2022-10-21T00:39:05.821Z,25.03
2022-10-21T00:40:05.814Z,25.08
2022-10-21T00:41:05.794Z,25.14
2022-10-21T00:42:05.789Z,25.03
2022-10-21T00:43:05.774Z,24.98
2022-10-21T00:44:05.768Z,25.03
2022-10-21T00:45:05.748Z,25.30
2022-10-21T00:46:05.753Z,25.08
2022-10-21T00:47:05.715Z,25.08
2022-10-21T00:48:05.701Z,25.03
2022-10-21T00:49:05.683Z,25.08
2022-10-21T00:50:05.695Z,25.03
2022-10-21T00:51:05.663Z,25.14
2022-10-21T00:52:05.655Z,25.14
2022-10-21T00:53:05.632Z,25.03
2022-10-21T00:54:05.621Z,25.03
2022-10-21T00:55:05.605Z,25.35
2022-10-21T00:56:05.593Z,25.03
2022-10-21T00:57:05.581Z,25.24
2022-10-21T00:58:05.574Z,25.08
2022-10-21T00:59:05.553Z,24.98
2022-10-21T01:00:05.535Z,25.08
2022-10-21T01:01:05.579Z,25.08
2022-10-21T01:02:05.532Z,25.14
2022-10-21T01:03:05.490Z,25.08
2022-10-21T01:04:05.481Z,25.08
2022-10-21T01:05:05.461Z,25.08
2022-10-21T01:06:05.457Z,25.14
2022-10-21T01:07:05.438Z,25.08
2022-10-21T01:08:05.429Z,25.03
2022-10-21T01:09:05.546Z,25.08
2022-10-21T01:10:05.401Z,25.08
2022-10-21T01:11:05.384Z,25.08
2022-10-21T01:12:05.372Z,25.19
2022-10-21T01:13:05.361Z,25.03
2022-10-21T01:14:05.343Z,25.03
2022-10-21T01:15:05.329Z,25.03
2022-10-21T01:16:05.313Z,24.92
2022-10-21T01:17:15.497Z,25.19
2022-10-21T01:18:06.326Z,25.08
2022-10-21T01:19:05.268Z,25.03
2022-10-21T01:20:05.256Z,25.08
2022-10-21T01:21:05.242Z,25.14
2022-10-21T01:22:05.237Z,25.03
2022-10-21T01:23:05.218Z,25.14
2022-10-21T01:25:05.441Z,24.87
2022-10-21T01:26:05.177Z,24.71
2022-10-21T01:27:05.157Z,24.92
2022-10-21T01:28:05.147Z,25.08
2022-10-21T01:29:05.131Z,25.14
2022-10-21T01:30:05.124Z,25.03
2022-10-21T01:31:05.107Z,24.98
2022-10-21T01:32:05.097Z,25.14
2022-10-21T01:33:05.101Z,25.14
2022-10-21T01:34:05.092Z,24.65
2022-10-21T01:35:05.049Z,25.08
2022-10-21T01:36:05.039Z,25.08
2022-10-21T01:37:05.023Z,25.41
2022-10-21T01:38:05.005Z,25.08
2022-10-21T01:39:04.989Z,25.03
2022-10-21T01:40:04.983Z,25.14
2022-10-21T01:41:04.962Z,25.03
2022-10-21T01:42:05.062Z,25.19
2022-10-21T01:43:04.932Z,25.14
2022-10-21T01:44:04.922Z,25.03
2022-10-21T01:45:04.906Z,25.24
2022-10-21T01:46:04.905Z,25.08
2022-10-21T01:47:04.889Z,25.19
2022-10-21T01:48:04.876Z,25.08
2022-10-21T01:49:04.865Z,25.35
2022-10-21T01:50:04.867Z,25.14
2022-10-21T01:51:04.823Z,25.14
2022-10-21T01:52:04.814Z,25.08
2022-10-21T01:53:04.802Z,25.03
2022-10-21T01:54:04.790Z,25.03
2022-10-21T01:55:04.773Z,24.98
2022-10-21T01:56:04.767Z,25.08
2022-10-21T01:57:04.753Z,25.08
2022-10-21T01:58:04.738Z,24.92
2022-10-21T01:59:04.721Z,25.03
2022-10-21T02:00:04.707Z,24.92
2022-10-21T02:01:04.742Z,25.19
2022-10-21T02:02:04.686Z,24.98
2022-10-21T02:03:04.664Z,25.03
2022-10-21T02:04:04.654Z,25.08
2022-10-21T02:05:04.634Z,25.08
2022-10-21T02:06:04.642Z,25.08
2022-10-21T02:07:04.607Z,25.14
2022-10-21T02:08:04.592Z,25.03
2022-10-21T02:09:04.664Z,25.03
2022-10-21T02:10:04.573Z,25.03
2022-10-21T02:11:04.552Z,25.03
2022-10-21T02:12:04.539Z,24.81
2022-10-21T02:13:04.522Z,25.14
2022-10-21T02:14:04.516Z,25.19
2022-10-21T02:15:04.493Z,25.24
2022-10-21T02:16:04.486Z,25.03
2022-10-21T02:17:04.470Z,25.14
2022-10-21T02:18:04.452Z,25.08
2022-10-21T02:19:04.436Z,25.03
2022-10-21T02:20:04.422Z,25.46
2022-10-21T02:21:04.412Z,24.98
2022-10-21T02:22:04.424Z,25.14
2022-10-21T02:23:04.384Z,25.08
2022-10-21T02:24:04.368Z,25.03
2022-10-21T02:25:04.361Z,24.81
2022-10-21T02:26:04.348Z,25.08
2022-10-21T02:27:04.329Z,25.19
2022-10-21T02:28:04.321Z,25.03
2022-10-21T02:29:04.306Z,25.08
2022-10-21T02:30:04.634Z,25.08
2022-10-21T02:31:04.270Z,25.03
2022-10-21T02:32:04.263Z,25.08
2022-10-21T02:33:04.242Z,25.08
2022-10-21T02:34:04.236Z,25.14
2022-10-21T02:35:04.218Z,25.03
2022-10-21T02:36:04.211Z,25.03
2022-10-21T02:37:04.192Z,25.03
2022-10-21T02:38:04.205Z,25.19
2022-10-21T02:39:04.163Z,25.08
2022-10-21T02:40:04.153Z,25.08
2022-10-21T02:41:04.135Z,25.14
2022-10-21T02:42:04.121Z,25.08
2022-10-21T02:43:04.107Z,25.24
2022-10-21T02:44:04.094Z,25.08
2022-10-21T02:45:04.078Z,24.92
2022-10-21T02:46:04.067Z,25.24
2022-10-21T02:47:04.084Z,25.03
2022-10-21T02:48:04.114Z,25.14
2022-10-21T02:49:04.025Z,25.08
2022-10-21T02:50:04.220Z,25.08
2022-10-21T02:51:04.005Z,25.03
2022-10-21T02:52:03.987Z,25.46
2022-10-21T02:53:03.972Z,25.14
2022-10-21T02:54:03.981Z,25.41
2022-10-21T02:55:03.944Z,25.03
2022-10-21T02:56:03.940Z,25.03
2022-10-21T02:57:03.920Z,24.98
2022-10-21T02:58:03.907Z,25.03
2022-10-21T02:59:03.893Z,25.46
2022-10-21T03:00:03.887Z,25.03
2022-10-21T03:01:03.906Z,25.14
2022-10-21T03:02:03.862Z,25.14
2022-10-21T03:03:03.846Z,25.08
2022-10-21T03:04:03.828Z,25.14
2022-10-21T03:05:03.815Z,25.08
2022-10-21T03:06:03.794Z,25.14
2022-10-21T03:07:03.833Z,25.14
2022-10-21T03:08:03.765Z,25.08
2022-10-21T03:09:03.808Z,25.03
2022-10-21T03:10:03.766Z,25.14
2022-10-21T03:11:03.728Z,24.98
2022-10-21T03:12:03.715Z,25.03
2022-10-21T03:13:03.710Z,25.08
2022-10-21T03:14:03.690Z,25.03
2022-10-21T03:15:03.680Z,25.19
2022-10-21T03:16:03.658Z,25.14
2022-10-21T03:17:03.654Z,25.24
2022-10-21T03:18:03.633Z,25.14
2022-10-21T03:19:03.625Z,25.03
2022-10-21T03:20:03.611Z,24.71
2022-10-21T03:21:03.599Z,25.30
2022-10-21T03:22:03.582Z,25.03
2022-10-21T03:23:03.565Z,25.19
2022-10-21T03:24:05.683Z,25.14
2022-10-21T03:25:03.538Z,25.14
2022-10-21T03:26:03.549Z,25.14
2022-10-21T03:27:03.510Z,25.08
2022-10-21T03:28:03.504Z,25.03
2022-10-21T03:29:03.488Z,25.03
2022-10-21T03:30:03.464Z,25.03
2022-10-21T03:31:03.459Z,25.03
2022-10-21T03:32:03.436Z,25.08
2022-10-21T03:33:03.428Z,25.08
2022-10-21T03:34:03.410Z,24.98
2022-10-21T03:35:03.603Z,24.81
2022-10-21T03:36:03.384Z,25.24
2022-10-21T03:37:03.372Z,25.03
2022-10-21T03:38:03.357Z,25.19
2022-10-21T03:39:03.354Z,25.14
2022-10-21T03:40:04.047Z,24.76
2022-10-21T03:41:03.323Z,25.24
2022-10-21T03:42:03.326Z,25.19
2022-10-21T03:43:03.294Z,25.14
2022-10-21T03:44:03.279Z,25.19
2022-10-21T03:45:03.267Z,25.03
2022-10-21T03:46:03.250Z,25.03
2022-10-21T03:47:03.235Z,25.24
2022-10-21T03:48:03.220Z,25.08
2022-10-21T03:49:05.560Z,25.08
2022-10-21T03:50:05.420Z,24.98
2022-10-21T03:51:03.178Z,25.24
2022-10-21T03:52:03.169Z,25.03
2022-10-21T03:53:13.462Z,25.14
2022-10-21T03:54:04.163Z,25.08
2022-10-21T03:55:03.130Z,24.98
2022-10-21T03:56:03.109Z,24.92
2022-10-21T03:57:03.101Z,25.24
2022-10-21T03:58:03.107Z,25.03
2022-10-21T03:59:03.078Z,25.57
2022-10-21T04:00:03.139Z,25.08
2022-10-21T04:01:03.048Z,25.24
2022-10-21T04:02:03.140Z,25.30
2022-10-21T04:03:03.022Z,25.03
2022-10-21T04:04:03.005Z,25.03
2022-10-21T04:05:03.002Z,25.24
2022-10-21T04:06:02.985Z,25.08
2022-10-21T04:07:02.965Z,24.98
2022-10-21T04:08:02.943Z,25.03
2022-10-21T04:09:03.064Z,25.03
2022-10-21T04:10:02.927Z,25.46
2022-10-21T04:11:02.970Z,25.03
2022-10-21T04:12:02.893Z,25.24
2022-10-21T04:13:02.885Z,25.67
2022-10-21T04:14:02.889Z,25.08
2022-10-21T04:15:02.850Z,25.08
2022-10-21T04:16:02.840Z,25.08
2022-10-21T04:17:07.731Z,25.08
2022-10-21T04:18:02.811Z,25.08
2022-10-21T04:19:02.800Z,24.81
2022-10-21T04:20:02.786Z,25.03
2022-10-21T04:21:02.823Z,25.03
2022-10-21T04:22:02.767Z,25.14
2022-10-21T04:23:02.751Z,25.24
2022-10-21T04:24:02.789Z,25.14
2022-10-21T04:25:04.758Z,25.03
2022-10-21T04:26:02.706Z,25.14
2022-10-21T04:27:02.696Z,25.14
2022-10-21T04:28:02.678Z,25.14
2022-10-21T04:29:02.678Z,25.08
2022-10-21T04:30:02.675Z,25.30
2022-10-21T04:31:02.634Z,25.08
2022-10-21T04:32:02.618Z,25.24
2022-10-21T04:33:02.620Z,25.03
2022-10-21T04:34:02.597Z,25.08
2022-10-21T04:35:02.580Z,25.14
2022-10-21T04:36:02.564Z,25.08
2022-10-21T04:37:04.986Z,24.92
2022-10-21T04:38:02.545Z,25.03
2022-10-21T04:39:02.526Z,25.19
2022-10-21T04:40:02.863Z,25.14
2022-10-21T04:41:02.501Z,25.14
2022-10-21T04:42:02.486Z,25.14
2022-10-21T04:43:02.472Z,25.14
2022-10-21T04:44:02.455Z,24.98
2022-10-21T04:45:02.441Z,25.08
2022-10-21T04:46:02.452Z,25.03
2022-10-21T04:47:02.417Z,25.08
2022-10-21T04:48:02.408Z,25.08
2022-10-21T04:49:02.387Z,25.03
2022-10-21T04:50:02.376Z,25.24
2022-10-21T04:51:02.359Z,25.14
2022-10-21T04:52:02.344Z,25.19
2022-10-21T04:53:02.337Z,25.03
2022-10-21T04:54:02.322Z,25.14
2022-10-21T04:55:02.314Z,25.08
2022-10-21T04:56:02.290Z,25.14
2022-10-21T04:57:02.278Z,25.14
2022-10-21T04:58:02.265Z,25.08
2022-10-21T04:59:02.259Z,25.08
2022-10-21T05:00:02.245Z,25.08
2022-10-21T05:01:02.331Z,25.08
2022-10-21T05:03:02.198Z,25.08
2022-10-21T05:04:02.187Z,25.08
2022-10-21T05:05:02.171Z,25.03
2022-10-21T05:06:02.165Z,25.08
2022-10-21T05:07:02.156Z,25.14
2022-10-21T05:08:02.131Z,25.14
2022-10-21T05:09:02.219Z,25.08
2022-10-21T05:10:02.102Z,25.24
2022-10-21T05:11:02.087Z,25.08
2022-10-21T05:12:02.073Z,25.08
2022-10-21T05:13:02.062Z,25.14
2022-10-21T05:14:02.047Z,25.19
2022-10-21T05:15:02.038Z,25.14
2022-10-21T05:16:02.023Z,25.08
2022-10-21T05:17:02.017Z,25.51
2022-10-21T05:18:02.014Z,24.98
2022-10-21T05:19:01.983Z,25.19
2022-10-21T05:20:01.970Z,25.08
2022-10-21T05:21:01.962Z,25.57
2022-10-21T05:22:01.944Z,25.08
2022-10-21T05:23:01.932Z,25.03
2022-10-21T05:24:01.917Z,25.19
2022-10-21T05:25:01.899Z,25.03
2022-10-21T05:26:01.888Z,25.03
2022-10-21T05:27:01.881Z,25.08
2022-10-21T05:28:01.867Z,25.14
2022-10-21T05:29:01.852Z,25.03
2022-10-21T05:30:01.829Z,25.14
2022-10-21T05:31:01.826Z,25.08
2022-10-21T05:32:01.802Z,25.57
2022-10-21T05:33:01.807Z,25.51
2022-10-21T05:34:01.804Z,25.46
2022-10-21T05:35:01.775Z,25.57
2022-10-21T05:36:01.757Z,25.51
2022-10-21T05:37:01.817Z,25.41
2022-10-21T05:38:01.725Z,25.62
2022-10-21T05:39:01.716Z,25.35
2022-10-21T05:40:01.703Z,25.78
2022-10-21T05:41:01.688Z,25.51
2022-10-21T05:42:01.677Z,25.35
2022-10-21T05:43:01.666Z,25.51
2022-10-21T05:44:01.647Z,25.46
2022-10-21T05:45:01.847Z,26.00
2022-10-21T05:46:01.620Z,25.62
2022-10-21T05:47:01.603Z,25.46
2022-10-21T05:48:01.587Z,25.41
2022-10-21T05:49:01.586Z,25.51
2022-10-21T05:50:01.596Z,25.46
2022-10-21T05:51:01.560Z,25.89
2022-10-21T05:52:01.536Z,25.46
2022-10-21T05:53:01.539Z,25.46
2022-10-21T05:54:01.509Z,25.41
2022-10-21T05:55:01.505Z,25.41
2022-10-21T05:56:01.482Z,26.00
2022-10-21T05:57:01.473Z,25.46
2022-10-21T05:58:01.460Z,25.46
2022-10-21T05:59:01.446Z,25.41
2022-10-21T06:00:01.432Z,25.51
2022-10-21T06:01:01.483Z,25.57
2022-10-21T06:02:01.405Z,25.46
2022-10-21T06:03:01.390Z,26.21
2022-10-21T06:04:01.374Z,26.37
2022-10-21T06:05:01.371Z,26.05
2022-10-21T06:06:01.379Z,26.10
2022-10-21T06:07:01.353Z,25.57
2022-10-21T06:08:01.324Z,26.16
2022-10-21T06:09:01.392Z,26.05
2022-10-21T06:10:01.294Z,26.05
2022-10-21T06:11:01.286Z,26.05
2022-10-21T06:12:01.267Z,26.00
2022-10-21T06:13:01.261Z,25.89
2022-10-21T06:14:01.244Z,26.05
2022-10-21T06:15:01.233Z,26.10
2022-10-21T06:16:01.292Z,25.94
2022-10-21T06:17:01.205Z,26.00
2022-10-21T06:18:01.188Z,26.10
2022-10-21T06:19:01.182Z,26.00
2022-10-21T06:20:01.164Z,26.05
2022-10-21T06:21:01.153Z,26.10
2022-10-21T06:22:01.155Z,26.10
2022-10-21T06:23:01.123Z,26.05
2022-10-21T06:24:01.109Z,26.05
2022-10-21T06:25:01.097Z,26.05
2022-10-21T06:26:01.086Z,26.00
2022-10-21T06:27:01.075Z,26.00
2022-10-21T06:28:01.058Z,25.94
2022-10-21T06:29:01.042Z,26.10
2022-10-21T06:30:01.031Z,26.48
2022-10-21T06:31:01.021Z,26.21
2022-10-21T06:32:01.005Z,26.05
2022-10-21T06:33:00.999Z,26.32
2022-10-21T06:34:00.980Z,26.10
2022-10-21T06:35:00.964Z,26.05
2022-10-21T06:36:00.959Z,26.43
2022-10-21T06:37:00.938Z,26.05
2022-10-21T06:38:01.062Z,26.48
2022-10-21T06:39:00.909Z,26.75
2022-10-21T06:40:00.891Z,26.48
2022-10-21T06:41:00.886Z,26.43
2022-10-21T06:42:00.863Z,26.43
2022-10-21T06:43:00.853Z,26.43
2022-10-21T06:44:00.835Z,26.37
2022-10-21T06:45:00.828Z,26.43
2022-10-21T06:46:00.812Z,26.48
2022-10-21T06:47:00.799Z,26.69
2022-10-21T06:48:00.782Z,26.43
2022-10-21T06:49:00.769Z,26.32
2022-10-21T06:50:00.959Z,26.53
2022-10-21T06:51:00.744Z,26.59
2022-10-21T06:52:00.735Z,26.43
2022-10-21T06:53:00.716Z,26.43
2022-10-21T06:54:00.725Z,26.37
2022-10-21T06:55:00.685Z,26.48
2022-10-21T06:56:00.672Z,26.48
2022-10-21T06:57:00.662Z,26.48
2022-10-21T06:58:00.654Z,26.43
2022-10-21T06:59:00.635Z,26.43
2022-10-21T07:00:00.615Z,26.80
2022-10-21T07:01:00.608Z,26.75
2022-10-21T07:02:01.269Z,26.86
2022-10-21T07:03:00.583Z,26.80
2022-10-21T07:04:00.569Z,26.80
2022-10-21T07:05:00.555Z,27.50
2022-10-21T07:06:00.534Z,26.75
2022-10-21T07:07:00.528Z,27.34
2022-10-21T07:08:00.503Z,27.45
2022-10-21T07:09:00.607Z,27.45
2022-10-21T07:10:00.509Z,26.86
2022-10-21T07:11:00.470Z,27.45
2022-10-21T07:12:00.458Z,27.39
2022-10-21T07:13:00.443Z,27.34
2022-10-21T07:14:00.432Z,27.39
2022-10-21T07:15:00.415Z,27.45
2022-10-21T07:16:00.402Z,27.39
2022-10-21T07:17:00.387Z,27.45
2022-10-21T07:18:00.374Z,26.86
2022-10-21T07:19:00.356Z,27.45
2022-10-21T07:20:00.346Z,27.61
2022-10-21T07:21:00.330Z,27.50
2022-10-21T07:22:00.314Z,27.45
2022-10-21T07:23:00.310Z,27.39
2022-10-21T07:24:00.296Z,27.34
2022-10-21T07:26:00.282Z,27.45
2022-10-21T07:27:00.248Z,27.71
2022-10-21T07:28:00.238Z,27.45
2022-10-21T07:29:00.222Z,27.18
2022-10-21T07:30:00.209Z,27.50
2022-10-21T07:31:00.189Z,27.39
2022-10-21T07:32:00.182Z,27.39
2022-10-21T07:33:00.237Z,27.39
2022-10-21T07:34:00.244Z,27.45
2022-10-21T07:35:00.201Z,27.45
2022-10-21T07:36:00.131Z,27.39
2022-10-21T07:37:00.112Z,27.45
2022-10-21T07:38:00.095Z,27.45
2022-10-21T07:39:00.110Z,27.66
2022-10-21T07:40:00.079Z,27.45
2022-10-21T07:41:00.056Z,27.45
2022-10-21T07:42:00.072Z,27.12
2022-10-21T07:43:00.157Z,27.45
2022-10-21T07:44:00.012Z,27.34
2022-10-21T07:45:00.001Z,27.45
2022-10-21T07:46:03.047Z,27.45
2022-10-21T07:47:00.994Z,27.34
2022-10-21T07:47:59.960Z,27.39
2022-10-21T07:48:59.948Z,27.50
2022-10-21T07:49:59.934Z,27.45
2022-10-21T07:50:59.918Z,27.50
2022-10-21T07:51:59.907Z,27.29
2022-10-21T07:53:11.033Z,27.39
2022-10-21T07:54:00.902Z,27.29
2022-10-21T07:55:00.208Z,27.45
2022-10-21T07:55:59.854Z,27.39
2022-10-21T07:56:59.832Z,27.45
2022-10-21T07:57:59.841Z,27.45
2022-10-21T07:58:59.808Z,27.45
2022-10-21T07:59:59.797Z,27.45
2022-10-21T08:00:59.940Z,27.45
2022-10-21T08:01:59.766Z,27.45
2022-10-21T08:02:59.747Z,27.45
2022-10-21T08:03:59.743Z,27.39
2022-10-21T08:04:59.730Z,27.39
2022-10-21T08:05:59.712Z,27.39
2022-10-21T08:06:59.693Z,27.39
2022-10-21T08:07:59.683Z,27.55
2022-10-21T08:08:59.779Z,27.39
2022-10-21T08:09:59.661Z,27.39
2022-10-21T08:10:59.646Z,27.88
2022-10-21T08:11:59.633Z,27.39
2022-10-21T08:12:59.613Z,27.45
2022-10-21T08:13:59.623Z,27.34
2022-10-21T08:14:59.591Z,27.39
2022-10-21T08:15:59.575Z,27.39
2022-10-21T08:16:59.559Z,27.50
2022-10-21T08:17:59.550Z,27.66
2022-10-21T08:18:59.534Z,27.45
2022-10-21T08:19:59.523Z,27.50
2022-10-21T08:20:59.509Z,27.55
2022-10-21T08:21:59.499Z,27.34
2022-10-21T08:22:59.474Z,27.45
2022-10-21T08:23:59.477Z,27.34
2022-10-21T08:24:59.448Z,27.50
2022-10-21T08:25:59.439Z,27.50
2022-10-21T08:26:59.426Z,27.39
2022-10-21T08:27:59.410Z,27.18
2022-10-21T08:28:59.400Z,27.45
2022-10-21T08:29:59.410Z,27.45
2022-10-21T08:30:59.370Z,27.50
2022-10-21T08:31:59.365Z,27.66
2022-10-21T08:32:59.346Z,26.86
2022-10-21T08:33:59.331Z,27.45
2022-10-21T08:34:59.318Z,27.45
2022-10-21T08:35:59.311Z,27.45
2022-10-21T08:36:59.290Z,27.39
2022-10-21T08:37:59.428Z,27.45
2022-10-21T08:38:59.259Z,26.86
2022-10-21T08:39:59.253Z,27.61
2022-10-21T08:40:59.232Z,27.39
2022-10-21T08:41:59.230Z,26.86
2022-10-21T08:42:59.212Z,26.96
2022-10-21T08:43:59.198Z,26.80
2022-10-21T08:44:59.178Z,26.69
2022-10-21T08:45:59.206Z,26.80
2022-10-21T08:46:59.216Z,26.86
2022-10-21T08:47:59.137Z,27.02
2022-10-21T08:48:59.128Z,26.69
2022-10-21T08:49:59.114Z,26.86
2022-10-21T08:50:59.095Z,26.86
2022-10-21T08:51:59.090Z,26.86
2022-10-21T08:52:59.068Z,27.02
2022-10-21T08:53:59.064Z,26.86
2022-10-21T08:54:59.045Z,27.18
2022-10-21T08:55:59.031Z,26.86
2022-10-21T08:56:59.021Z,26.96
2022-10-21T08:57:59.019Z,26.80
2022-10-21T08:58:59.042Z,26.75
2022-10-21T08:59:59.077Z,26.96
2022-10-21T09:00:58.983Z,26.96
2022-10-21T09:01:58.984Z,26.69
2022-10-21T09:02:59.026Z,26.80
2022-10-21T09:03:58.928Z,26.86
2022-10-21T09:04:58.909Z,26.86
2022-10-21T09:05:58.903Z,26.86
2022-10-21T09:06:58.883Z,26.96
2022-10-21T09:07:58.873Z,26.86
2022-10-21T09:08:58.943Z,26.86
2022-10-21T09:09:58.840Z,26.91
2022-10-21T09:10:58.874Z,26.86
2022-10-21T09:11:58.820Z,26.86
2022-10-21T09:12:58.797Z,26.86
2022-10-21T09:13:58.791Z,26.96
2022-10-21T09:14:58.771Z,26.91
2022-10-21T09:15:58.760Z,26.80
2022-10-21T09:16:58.750Z,26.86
2022-10-21T09:17:58.763Z,26.75
2022-10-21T09:18:58.719Z,26.86
2022-10-21T09:19:58.720Z,26.86
2022-10-21T09:21:01.807Z,26.91
2022-10-21T09:22:10.849Z,26.86
2022-10-21T09:22:59.686Z,26.86
2022-10-21T09:23:58.650Z,26.86
2022-10-21T09:24:58.639Z,26.96
2022-10-21T09:25:58.623Z,26.86
2022-10-21T09:26:58.618Z,26.86
2022-10-21T09:27:59.027Z,26.86
2022-10-21T09:28:58.618Z,26.86
2022-10-21T09:29:58.615Z,26.86
2022-10-21T09:30:58.591Z,26.86
2022-10-21T09:32:02.215Z,27.07
2022-10-21T09:32:58.559Z,26.91
2022-10-21T09:33:58.570Z,26.75
2022-10-21T09:34:58.519Z,26.91
2022-10-21T09:35:58.548Z,26.80
2022-10-21T09:36:58.475Z,26.86
2022-10-21T09:37:58.464Z,26.91
2022-10-21T09:38:58.449Z,27.18
2022-10-21T09:39:58.436Z,26.80
2022-10-21T09:40:58.418Z,26.80
2022-10-21T09:42:00.156Z,26.80
2022-10-21T09:42:58.394Z,26.69
2022-10-21T09:43:58.386Z,26.86
2022-10-21T09:44:58.371Z,26.96
2022-10-21T09:45:58.358Z,26.86
2022-10-21T09:46:58.336Z,26.86
2022-10-21T09:47:58.323Z,26.80
2022-10-21T09:50:13.814Z,26.86
2022-10-21T09:50:59.305Z,26.86
2022-10-21T09:51:58.269Z,26.86
2022-10-21T09:52:58.263Z,26.80
2022-10-21T09:53:58.254Z,26.80
2022-10-21T09:54:58.282Z,26.80
2022-10-21T09:55:58.223Z,26.75
2022-10-21T09:56:58.201Z,26.91
2022-10-21T09:57:58.197Z,26.96
2022-10-21T09:59:01.241Z,26.86
2022-10-21T09:59:58.320Z,26.48
2022-10-21T10:00:58.144Z,26.86
2022-10-21T10:01:58.171Z,27.18
2022-10-21T10:02:58.116Z,26.91
2022-10-21T10:03:58.113Z,27.07
2022-10-21T10:04:58.101Z,26.80
2022-10-21T10:05:58.108Z,26.96
2022-10-21T10:06:58.068Z,26.80
2022-10-21T10:07:58.060Z,26.43
2022-10-21T10:09:58.030Z,26.91
2022-10-21T10:10:58.018Z,26.48
2022-10-21T10:11:58.004Z,27.18
2022-10-21T10:12:57.995Z,26.59
2022-10-21T10:13:57.981Z,26.21
2022-10-21T10:14:57.966Z,26.96
2022-10-21T10:15:57.948Z,26.43
2022-10-21T10:16:57.934Z,26.43
2022-10-21T10:17:57.929Z,26.48
2022-10-21T10:18:57.908Z,26.96
2022-10-21T10:19:57.895Z,26.43
2022-10-21T10:20:57.878Z,26.48
2022-10-21T10:21:57.889Z,26.53
2022-10-21T10:22:57.849Z,26.37
2022-10-21T10:23:57.841Z,27.02
2022-10-21T10:24:57.829Z,26.59
2022-10-21T10:25:57.820Z,26.43
2022-10-21T10:26:57.800Z,26.48
2022-10-21T10:27:57.865Z,26.43
2022-10-21T10:28:57.769Z,26.48
2022-10-21T10:29:57.766Z,26.53
2022-10-21T10:30:57.745Z,26.26
2022-10-21T10:31:57.740Z,26.43
2022-10-21T10:32:57.711Z,26.59
2022-10-21T10:33:58.981Z,26.59
2022-10-21T10:34:57.686Z,26.43
2022-10-21T10:35:57.675Z,26.37
2022-10-21T10:36:57.659Z,26.48
2022-10-21T10:37:57.807Z,26.48
2022-10-21T10:38:57.635Z,26.43
2022-10-21T10:39:57.629Z,26.48
2022-10-21T10:40:58.567Z,26.48
2022-10-21T10:41:57.596Z,26.43
2022-10-21T10:42:57.582Z,26.43
2022-10-21T10:43:57.575Z,26.37
2022-10-21T10:44:57.558Z,26.43
2022-10-21T10:45:57.541Z,26.48
2022-10-21T10:46:57.525Z,26.53
2022-10-21T10:47:57.514Z,26.91
2022-10-21T10:48:57.496Z,26.43
2022-10-21T10:49:57.482Z,26.43
2022-10-21T10:50:57.476Z,26.48
2022-10-21T10:51:57.460Z,26.43
2022-10-21T10:52:57.445Z,26.37
2022-10-21T10:53:57.542Z,26.48
2022-10-21T10:54:57.415Z,26.16
2022-10-21T10:55:57.406Z,26.53
2022-10-21T10:56:57.395Z,26.43
2022-10-21T10:58:09.745Z,26.37
2022-10-21T10:58:58.385Z,26.48
2022-10-21T10:59:57.355Z,26.05
2022-10-21T11:00:57.493Z,26.43
2022-10-21T11:01:57.327Z,26.53
2022-10-21T11:02:57.307Z,26.43
2022-10-21T11:03:57.307Z,26.48
2022-10-21T11:04:57.683Z,26.48
2022-10-21T11:05:57.264Z,26.26
2022-10-21T11:06:57.256Z,26.05
2022-10-21T11:07:57.241Z,25.83
2022-10-21T11:08:57.290Z,26.10
2022-10-21T11:09:57.329Z,26.21
2022-10-21T11:10:57.235Z,26.37
2022-10-21T11:11:57.182Z,26.32
2022-10-21T11:12:57.231Z,26.48
2022-10-21T11:13:57.263Z,26.16
2022-10-21T11:14:57.138Z,26.43
2022-10-21T11:15:57.141Z,26.10
2022-10-21T11:17:00.441Z,26.05
2022-10-21T11:18:00.467Z,26.10
2022-10-21T11:18:58.115Z,26.05
2022-10-21T11:19:57.071Z,26.53
2022-10-21T11:20:57.060Z,26.10
2022-10-21T11:21:57.050Z,26.05
2022-10-21T11:22:57.097Z,26.26
2022-10-21T11:23:57.936Z,26.05
2022-10-21T11:24:57.005Z,26.05
2022-10-21T11:25:57.108Z,26.21
2022-10-21T11:26:56.973Z,26.05
2022-10-21T11:27:56.974Z,26.00
2022-10-21T11:28:56.945Z,26.05
2022-10-21T11:29:56.933Z,26.05
2022-10-21T11:30:56.920Z,26.10
2022-10-21T11:32:11.206Z,26.05
2022-10-21T11:32:57.990Z,26.10
2022-10-21T11:33:56.879Z,25.83
2022-10-21T11:34:56.870Z,26.05
2022-10-21T11:35:58.015Z,26.16
2022-10-21T11:36:56.847Z,26.00
2022-10-21T11:37:56.825Z,26.26
2022-10-21T11:38:56.815Z,26.05
2022-10-21T11:39:56.799Z,26.16
2022-10-21T11:40:56.788Z,26.05
2022-10-21T11:41:56.885Z,25.78
2022-10-21T11:42:56.820Z,26.00
2022-10-21T11:43:56.745Z,26.21
2022-10-21T11:44:56.732Z,26.10
2022-10-21T11:45:56.712Z,25.89
2022-10-21T11:46:56.705Z,26.10
2022-10-21T11:47:56.686Z,26.26
2022-10-21T11:48:56.686Z,26.05
2022-10-21T11:49:56.667Z,26.05
2022-10-21T11:50:56.654Z,26.05
2022-10-21T11:51:56.633Z,26.05
2022-10-21T11:52:56.694Z,26.05
2022-10-21T11:53:56.617Z,26.32
2022-10-21T11:55:08.860Z,26.05
2022-10-21T11:55:57.616Z,25.94
2022-10-21T11:56:56.574Z,26.05
2022-10-21T11:57:56.669Z,26.00
2022-10-21T11:58:56.542Z,26.10
2022-10-21T11:59:59.328Z,26.10
2022-10-21T12:00:56.516Z,26.00
2022-10-21T12:01:56.557Z,26.00
2022-10-21T12:02:56.494Z,26.10
2022-10-21T12:03:56.477Z,26.05
2022-10-21T12:04:56.468Z,26.05
2022-10-21T12:05:56.448Z,26.16
2022-10-21T12:06:56.439Z,26.00
2022-10-21T12:07:56.418Z,26.10
2022-10-21T12:08:56.409Z,26.05
2022-10-21T12:09:56.544Z,25.46
2022-10-21T12:10:56.379Z,26.16
2022-10-21T12:11:56.360Z,26.05
2022-10-21T12:12:56.363Z,26.00
2022-10-21T12:13:56.461Z,26.10
2022-10-21T12:14:56.332Z,26.21
2022-10-21T12:15:56.316Z,25.46
2022-10-21T12:16:56.309Z,25.46
2022-10-21T12:17:56.285Z,26.00
2022-10-21T12:18:56.283Z,26.00
2022-10-21T12:19:56.258Z,26.05
2022-10-21T12:20:56.249Z,26.16
2022-10-21T12:21:56.234Z,25.35
2022-10-21T12:22:56.219Z,25.46
2022-10-21T12:23:56.302Z,25.83
2022-10-21T12:24:56.200Z,25.57
2022-10-21T12:25:56.182Z,25.46
2022-10-21T12:26:56.162Z,26.05
2022-10-21T12:27:56.154Z,25.46
2022-10-21T12:28:56.146Z,26.05
2022-10-21T12:29:56.238Z,25.46
2022-10-21T12:30:56.115Z,25.46
2022-10-21T12:31:56.099Z,25.41
2022-10-21T12:32:56.086Z,26.21
2022-10-21T12:33:56.067Z,25.46
2022-10-21T12:34:56.062Z,25.51
2022-10-21T12:35:56.044Z,26.05
2022-10-21T12:36:56.028Z,25.51
2022-10-21T12:37:56.015Z,26.10
2022-10-21T12:38:56.007Z,26.43
2022-10-21T12:39:55.987Z,25.62
2022-10-21T12:40:55.983Z,25.51
2022-10-21T12:41:55.957Z,25.35
2022-10-21T12:42:55.956Z,25.30
2022-10-21T12:43:55.934Z,25.46
2022-10-21T12:44:55.920Z,25.57
2022-10-21T12:45:55.931Z,25.51
2022-10-21T12:46:55.892Z,26.05
2022-10-21T12:47:55.881Z,25.41
2022-10-21T12:48:55.873Z,26.05
2022-10-21T12:49:55.853Z,26.10
2022-10-21T12:50:55.847Z,26.05
2022-10-21T12:51:55.831Z,25.46
2022-10-21T12:52:55.818Z,25.46
2022-10-21T12:53:55.804Z,26.05
2022-10-21T12:54:55.826Z,25.41
2022-10-21T12:55:55.823Z,26.10
2022-10-21T12:56:55.765Z,25.62